sensor_id;sensor_type;location;lat;lon;timestamp;temperature;humidity
6978;DHT22;3529;53.244;10.414;2022-10-16T00:00:17;13.00;99.90
6978;DHT22;3529;53.244;10.414;2022-10-16T00:02:43;13.10;99.90
6978;DHT22;3529;53.244;10.414;2022-10-16T00:05:08;13.00;99.90
6978;DHT22;3529;53.244;10.414;2022-10-16T00:07:34;13.00;99.90
6978;DHT22;3529;53.244;10.414;2022-10-16T00:09:59;13.00;99.90
6978;DHT22;3529;53.244;10.414;2022-10-16T00:12:25;13.00;99.90
6978;DHT22;3529;53.244;10.414;2022-10-16T00:14:50;13.00;99.90
6978;DHT22;3529;53.244;10.414;2022-10-16T00:17:16;12.90;99.90
6978;DHT22;3529;53.244;10.414;2022-10-16T00:19:41;12.90;99.90
6978;DHT22;3529;53.244;10.414;2022-10-16T00:22:07;12.90;99.90
6978;DHT22;3529;53.244;10.414;2022-10-16T00:24:33;12.90;99.90
6978;DHT22;3529;53.244;10.414;2022-10-16T00:26:58;12.90;99.90
6978;DHT22;3529;53.244;10.414;2022-10-16T00:29:24;12.80;99.90
6978;DHT22;3529;53.244;10.414;2022-10-16T00:31:49;12.80;99.90
6978;DHT22;3529;53.244;10.414;2022-10-16T00:34:15;12.80;99.90
6978;DHT22;3529;53.244;10.414;2022-10-16T00:36:40;12.70;99.90
6978;DHT22;3529;53.244;10.414;2022-10-16T00:39:06;12.70;99.90
6978;DHT22;3529;53.244;10.414;2022-10-16T00:41:32;12.60;99.90
6978;DHT22;3529;53.244;10.414;2022-10-16T00:44:04;12.60;99.90
6978;DHT22;3529;53.244;10.414;2022-10-16T00:46:50;12.50;99.90
6978;DHT22;3529;53.244;10.414;2022-10-16T00:49:17;12.50;99.90
6978;DHT22;3529;53.244;10.414;2022-10-16T00:51:51;12.50;99.90
6978;DHT22;3529;53.244;10.414;2022-10-16T00:54:21;12.40;99.90
6978;DHT22;3529;53.244;10.414;2022-10-16T00:56:48;12.40;99.90
6978;DHT22;3529;53.244;10.414;2022-10-16T00:59:28;12.30;99.90
6978;DHT22;3529;53.244;10.414;2022-10-16T01:01:55;12.30;99.90
6978;DHT22;3529;53.244;10.414;2022-10-16T01:04:21;12.30;99.90
6978;DHT22;3529;53.244;10.414;2022-10-16T01:07:16;12.20;99.90
6978;DHT22;3529;53.244;10.414;2022-10-16T01:10:07;12.20;99.90
6978;DHT22;3529;53.244;10.414;2022-10-16T01:12:54;12.20;99.90
6978;DHT22;3529;53.244;10.414;2022-10-16T01:15:30;12.10;99.90
6978;DHT22;3529;53.244;10.414;2022-10-16T01:20:33;12.10;99.90
6978;DHT22;3529;53.244;10.414;2022-10-16T01:28:24;12.00;99.90
6978;DHT22;3529;53.244;10.414;2022-10-16T01:30:53;11.90;99.90
6978;DHT22;3529;53.244;10.414;2022-10-16T01:33:24;11.90;99.90
6978;DHT22;3529;53.244;10.414;2022-10-16T01:35:56;11.80;99.90
6978;DHT22;3529;53.244;10.414;2022-10-16T01:38:33;11.80;99.90
6978;DHT22;3529;53.244;10.414;2022-10-16T01:41:04;11.70;99.90
6978;DHT22;3529;53.244;10.414;2022-10-16T01:43:40;11.60;99.90
6978;DHT22;3529;53.244;10.414;2022-10-16T01:46:08;11.60;99.90
6978;DHT22;3529;53.244;10.414;2022-10-16T01:48:35;11.60;99.90
6978;DHT22;3529;53.244;10.414;2022-10-16T01:51:12;11.60;99.90
6978;DHT22;3529;53.244;10.414;2022-10-16T01:53:40;11.50;99.90
6978;DHT22;3529;53.244;10.414;2022-10-16T01:56:10;11.50;99.90
6978;DHT22;3529;53.244;10.414;2022-10-16T01:58:40;11.40;99.90
6978;DHT22;3529;53.244;10.414;2022-10-16T02:01:09;11.40;99.90
6978;DHT22;3529;53.244;10.414;2022-10-16T02:03:37;11.30;99.90
6978;DHT22;3529;53.244;10.414;2022-10-16T02:06:06;11.30;99.90
6978;DHT22;3529;53.244;10.414;2022-10-16T02:08:32;11.20;99.90
6978;DHT22;3529;53.244;10.414;2022-10-16T02:10:59;11.20;99.90
6978;DHT22;3529;53.244;10.414;2022-10-16T02:13:37;11.20;99.90
6978;DHT22;3529;53.244;10.414;2022-10-16T02:16:04;11.10;99.90
6978;DHT22;3529;53.244;10.414;2022-10-16T02:18:30;11.20;99.90
6978;DHT22;3529;53.244;10.414;2022-10-16T02:21:19;11.20;99.90
6978;DHT22;3529;53.244;10.414;2022-10-16T02:26:35;11.20;99.90
6978;DHT22;3529;53.244;10.414;2022-10-16T02:29:08;11.20;99.90
6978;DHT22;3529;53.244;10.414;2022-10-16T02:31:38;11.20;99.90
6978;DHT22;3529;53.244;10.414;2022-10-16T02:34:06;11.20;99.90
6978;DHT22;3529;53.244;10.414;2022-10-16T02:36:34;11.30;99.90
6978;DHT22;3529;53.244;10.414;2022-10-16T02:39:02;11.30;99.90
6978;DHT22;3529;53.244;10.414;2022-10-16T02:41:30;11.30;99.90
6978;DHT22;3529;53.244;10.414;2022-10-16T02:43:58;11.30;99.90
6978;DHT22;3529;53.244;10.414;2022-10-16T02:46:23;11.30;99.90
6978;DHT22;3529;53.244;10.414;2022-10-16T02:48:49;11.30;99.90
6978;DHT22;3529;53.244;10.414;2022-10-16T02:51:14;11.20;99.90
6978;DHT22;3529;53.244;10.414;2022-10-16T02:53:40;11.20;99.90
6978;DHT22;3529;53.244;10.414;2022-10-16T02:56:06;11.20;99.90
6978;DHT22;3529;53.244;10.414;2022-10-16T02:58:31;11.20;99.90
6978;DHT22;3529;53.244;10.414;2022-10-16T03:00:57;11.10;99.90
6978;DHT22;3529;53.244;10.414;2022-10-16T03:03:22;11.10;99.90
6978;DHT22;3529;53.244;10.414;2022-10-16T03:05:48;11.00;99.90
6978;DHT22;3529;53.244;10.414;2022-10-16T03:08:14;11.00;99.90
6978;DHT22;3529;53.244;10.414;2022-10-16T03:10:39;11.00;99.90
6978;DHT22;3529;53.244;10.414;2022-10-16T03:13:05;11.00;99.90
6978;DHT22;3529;53.244;10.414;2022-10-16T03:15:31;11.00;99.90
6978;DHT22;3529;53.244;10.414;2022-10-16T03:18:00;11.00;99.90
6978;DHT22;3529;53.244;10.414;2022-10-16T03:20:26;10.90;99.90
6978;DHT22;3529;53.244;10.414;2022-10-16T03:22:52;10.90;99.90
6978;DHT22;3529;53.244;10.414;2022-10-16T03:25:17;11.00;99.90
6978;DHT22;3529;53.244;10.414;2022-10-16T03:27:44;11.00;99.90
6978;DHT22;3529;53.244;10.414;2022-10-16T03:30:10;11.00;99.90
6978;DHT22;3529;53.244;10.414;2022-10-16T03:32:35;11.00;99.90
6978;DHT22;3529;53.244;10.414;2022-10-16T03:35:01;11.00;99.90
6978;DHT22;3529;53.244;10.414;2022-10-16T03:37:27;11.10;99.90
6978;DHT22;3529;53.244;10.414;2022-10-16T03:39:52;11.10;99.90
6978;DHT22;3529;53.244;10.414;2022-10-16T03:42:18;11.20;99.90
6978;DHT22;3529;53.244;10.414;2022-10-16T03:44:44;11.20;99.90
6978;DHT22;3529;53.244;10.414;2022-10-16T03:47:09;11.20;99.90
6978;DHT22;3529;53.244;10.414;2022-10-16T03:49:35;11.20;99.90
6978;DHT22;3529;53.244;10.414;2022-10-16T03:52:00;11.20;99.90
6978;DHT22;3529;53.244;10.414;2022-10-16T03:54:26;11.20;99.90
6978;DHT22;3529;53.244;10.414;2022-10-16T03:56:52;11.20;99.90
6978;DHT22;3529;53.244;10.414;2022-10-16T03:59:17;11.30;99.90
6978;DHT22;3529;53.244;10.414;2022-10-16T04:01:43;11.20;99.90
6978;DHT22;3529;53.244;10.414;2022-10-16T04:04:09;11.20;99.90
6978;DHT22;3529;53.244;10.414;2022-10-16T04:06:34;11.20;99.90
6978;DHT22;3529;53.244;10.414;2022-10-16T04:09:00;11.20;99.90
6978;DHT22;3529;53.244;10.414;2022-10-16T04:11:25;11.10;99.90
6978;DHT22;3529;53.244;10.414;2022-10-16T04:13:51;11.10;99.90
6978;DHT22;3529;53.244;10.414;2022-10-16T04:16:16;11.00;99.90
6978;DHT22;3529;53.244;10.414;2022-10-16T04:18:42;10.90;99.90
6978;DHT22;3529;53.244;10.414;2022-10-16T04:21:08;10.80;99.90
6978;DHT22;3529;53.244;10.414;2022-10-16T04:23:33;10.70;99.90
6978;DHT22;3529;53.244;10.414;2022-10-16T04:25:59;10.70;99.90
6978;DHT22;3529;53.244;10.414;2022-10-16T04:28:25;10.60;99.90
6978;DHT22;3529;53.244;10.414;2022-10-16T04:30:52;10.60;99.90
6978;DHT22;3529;53.244;10.414;2022-10-16T04:33:17;10.50;99.90
6978;DHT22;3529;53.244;10.414;2022-10-16T04:35:43;10.50;99.90
6978;DHT22;3529;53.244;10.414;2022-10-16T04:38:08;10.50;99.90
6978;DHT22;3529;53.244;10.414;2022-10-16T04:40:34;10.40;99.90
6978;DHT22;3529;53.244;10.414;2022-10-16T04:43:05;10.50;99.90
6978;DHT22;3529;53.244;10.414;2022-10-16T04:45:31;10.50;99.90
6978;DHT22;3529;53.244;10.414;2022-10-16T04:47:57;10.60;99.90
6978;DHT22;3529;53.244;10.414;2022-10-16T04:50:23;10.60;99.90
6978;DHT22;3529;53.244;10.414;2022-10-16T04:52:49;10.60;99.90
6978;DHT22;3529;53.244;10.414;2022-10-16T04:55:14;10.70;99.90
6978;DHT22;3529;53.244;10.414;2022-10-16T04:57:40;10.80;99.90
6978;DHT22;3529;53.244;10.414;2022-10-16T05:00:06;10.80;99.90
6978;DHT22;3529;53.244;10.414;2022-10-16T05:02:33;10.90;99.90
6978;DHT22;3529;53.244;10.414;2022-10-16T05:04:58;10.90;99.90
6978;DHT22;3529;53.244;10.414;2022-10-16T05:07:24;10.90;99.90
6978;DHT22;3529;53.244;10.414;2022-10-16T05:09:50;10.90;99.90
6978;DHT22;3529;53.244;10.414;2022-10-16T05:12:15;10.90;99.90
6978;DHT22;3529;53.244;10.414;2022-10-16T05:14:41;10.90;99.90
6978;DHT22;3529;53.244;10.414;2022-10-16T05:17:06;10.90;99.90
6978;DHT22;3529;53.244;10.414;2022-10-16T05:19:32;10.90;99.90
6978;DHT22;3529;53.244;10.414;2022-10-16T05:21:58;10.90;99.90
6978;DHT22;3529;53.244;10.414;2022-10-16T05:24:23;10.90;99.90
6978;DHT22;3529;53.244;10.414;2022-10-16T05:26:49;10.90;99.90
6978;DHT22;3529;53.244;10.414;2022-10-16T05:29:15;10.90;99.90
6978;DHT22;3529;53.244;10.414;2022-10-16T05:31:41;10.90;99.90
6978;DHT22;3529;53.244;10.414;2022-10-16T05:34:06;10.90;99.90
6978;DHT22;3529;53.244;10.414;2022-10-16T05:36:32;10.90;99.90
6978;DHT22;3529;53.244;10.414;2022-10-16T05:38:58;10.90;99.90
6978;DHT22;3529;53.244;10.414;2022-10-16T05:41:23;10.90;99.90
6978;DHT22;3529;53.244;10.414;2022-10-16T05:43:51;10.90;99.90
6978;DHT22;3529;53.244;10.414;2022-10-16T05:46:18;10.80;99.90
